createdAt,value
2022-12-05T00:01:42.616Z,40.42
2022-12-05T00:04:13.146Z,39.63
2022-12-05T00:06:42.806Z,37.95
2022-12-05T00:09:12.495Z,39.72
2022-12-05T00:11:43.659Z,35.55
2022-12-05T00:14:12.443Z,30.60
2022-12-05T00:16:42.462Z,29.90
2022-12-05T00:19:13.903Z,28.48
2022-12-05T00:21:42.140Z,24.85
2022-12-05T00:24:14.555Z,25.50
2022-12-05T00:26:43.269Z,20.00
2022-12-05T00:29:10.898Z,26.25
2022-12-05T00:31:39.170Z,25.25
2022-12-05T00:34:06.659Z,27.85
2022-12-05T00:36:35.444Z,28.67
2022-12-05T00:39:08.136Z,29.75
2022-12-05T00:41:35.976Z,28.75
2022-12-05T00:44:04.940Z,29.77
2022-12-05T00:46:34.140Z,33.75
2022-12-05T00:49:03.566Z,28.15
2022-12-05T00:51:34.394Z,28.95
2022-12-05T00:54:04.416Z,34.10
2022-12-05T00:56:33.839Z,32.08
2022-12-05T00:59:02.613Z,31.20
2022-12-05T01:01:39.091Z,28.95
2022-12-05T01:04:22.322Z,29.50
2022-12-05T01:06:51.039Z,28.17
2022-12-05T01:09:20.525Z,26.20
2022-12-05T01:11:51.569Z,26.38
2022-12-05T01:14:22.264Z,23.85
2022-12-05T01:16:51.818Z,27.48
2022-12-05T01:19:24.129Z,24.45
2022-12-05T01:21:52.739Z,24.77
2022-12-05T01:24:22.161Z,23.02
2022-12-05T01:26:49.931Z,18.95
2022-12-05T01:29:23.021Z,16.63
2022-12-05T01:31:51.884Z,18.63
2022-12-05T01:34:19.991Z,16.08
2022-12-05T01:36:47.865Z,13.32
2022-12-05T01:39:16.038Z,11.80
2022-12-05T01:41:46.775Z,13.20
2022-12-05T01:44:14.313Z,12.25
2022-12-05T01:46:50.376Z,11.93
2022-12-05T01:49:18.255Z,14.50
2022-12-05T01:51:48.959Z,13.40
2022-12-05T01:54:18.625Z,14.50
2022-12-05T01:56:57.521Z,14.18
2022-12-05T01:59:27.457Z,12.73
2022-12-05T02:01:55.142Z,13.57
2022-12-05T02:04:22.961Z,11.40
2022-12-05T02:06:50.448Z,11.80
2022-12-05T02:09:18.066Z,14.05
2022-12-05T02:11:58.577Z,13.57
2022-12-05T02:14:56.027Z,11.88
2022-12-05T02:17:50.526Z,11.73
2022-12-05T02:20:24.095Z,14.07
2022-12-05T02:22:57.711Z,14.70
2022-12-05T02:25:45.777Z,13.35
2022-12-05T02:28:22.212Z,17.17
2022-12-05T02:31:31.918Z,18.33
2022-12-05T02:34:14.605Z,18.48
2022-12-05T02:37:05.689Z,19.25
2022-12-05T02:39:33.095Z,21.45
2022-12-05T02:42:21.860Z,21.20
2022-12-05T02:45:02.314Z,21.40
2022-12-05T02:47:33.257Z,20.75
2022-12-05T02:50:01.175Z,24.23
2022-12-05T02:52:31.596Z,19.15
2022-12-05T02:55:00.567Z,20.50
2022-12-05T02:57:28.784Z,18.90
2022-12-05T02:59:56.687Z,20.08
2022-12-05T03:02:24.423Z,20.35
2022-12-05T03:04:52.179Z,22.55
2022-12-05T03:07:22.105Z,19.90
2022-12-05T03:09:57.030Z,20.60
2022-12-05T03:12:42.387Z,20.13
2022-12-05T03:15:25.848Z,19.95
2022-12-05T03:18:16.712Z,18.17
2022-12-05T03:21:05.496Z,18.38
2022-12-05T03:23:37.535Z,19.48
2022-12-05T03:26:42.448Z,16.80
2022-12-05T03:29:48.540Z,17.10
2022-12-05T03:32:31.522Z,18.65
2022-12-05T03:35:25.716Z,17.88
2022-12-05T03:37:53.402Z,17.33
2022-12-05T03:40:31.685Z,18.00
2022-12-05T03:43:09.189Z,16.50
2022-12-05T03:46:19.169Z,18.08
2022-12-05T03:48:49.896Z,16.98
2022-12-05T03:51:20.799Z,15.05
2022-12-05T03:53:57.582Z,15.38
2022-12-05T03:56:35.179Z,15.40
2022-12-05T03:59:27.182Z,14.13
2022-12-05T04:01:57.686Z,13.80
2022-12-05T04:04:31.180Z,14.10
2022-12-05T04:07:01.768Z,14.52
2022-12-05T04:09:37.659Z,13.65
2022-12-05T04:12:10.938Z,13.48
2022-12-05T04:14:46.730Z,14.77
2022-12-05T04:17:26.936Z,14.73
2022-12-05T04:20:18.403Z,15.88
2022-12-05T04:22:46.412Z,15.90
2022-12-05T04:25:34.674Z,16.67
2022-12-05T04:28:11.028Z,15.70
2022-12-05T04:30:58.704Z,14.18
2022-12-05T04:33:56.519Z,12.70
2022-12-05T04:36:42.949Z,14.38
2022-12-05T04:39:35.071Z,12.93
2022-12-05T04:42:07.791Z,13.40
2022-12-05T04:44:40.346Z,15.35
2022-12-05T04:47:10.041Z,14.18
2022-12-05T04:49:40.529Z,14.48
2022-12-05T04:52:11.091Z,13.32
2022-12-05T04:54:50.379Z,13.05
2022-12-05T04:57:40.925Z,14.98
2022-12-05T05:00:09.839Z,13.65
2022-12-05T05:02:51.795Z,11.35
2022-12-05T05:05:20.989Z,11.43
2022-12-05T05:07:51.804Z,12.93
2022-12-05T05:10:37.706Z,12.90
2022-12-05T05:13:05.293Z,12.55
2022-12-05T05:15:32.965Z,13.52
2022-12-05T05:18:00.411Z,14.43
2022-12-05T05:20:29.232Z,13.52
2022-12-05T05:22:58.702Z,12.02
2022-12-05T05:25:26.629Z,15.40
2022-12-05T05:27:56.544Z,11.57
2022-12-05T05:30:24.871Z,13.40
2022-12-05T05:32:53.020Z,12.25
2022-12-05T05:35:21.877Z,11.52
2022-12-05T05:37:52.225Z,11.23
2022-12-05T05:40:19.861Z,11.32
2022-12-05T05:42:49.819Z,11.77
2022-12-05T05:45:18.222Z,13.30
2022-12-05T07:20:06.384Z,3.95
2022-12-05T07:23:11.171Z,7.68
2022-12-05T07:26:08.833Z,7.80
2022-12-05T07:28:46.450Z,4.97
2022-12-05T07:31:20.560Z,10.48
2022-12-05T07:34:12.809Z,4.90
2022-12-05T07:36:44.402Z,4.75
2022-12-05T07:39:49.012Z,4.85
2022-12-05T07:42:32.014Z,4.20
2022-12-05T07:45:02.562Z,8.25
2022-12-05T07:47:50.224Z,8.70
2022-12-05T07:50:18.395Z,7.60
2022-12-05T07:52:59.340Z,9.48
2022-12-05T07:55:39.767Z,10.98
2022-12-05T07:58:26.615Z,11.95
2022-12-05T08:04:04.330Z,12.63
2022-12-05T08:06:41.270Z,13.38
2022-12-05T08:09:39.699Z,8.45
2022-12-05T08:16:06.255Z,9.02
2022-12-05T08:18:50.147Z,11.65
2022-12-05T08:21:20.020Z,7.32
2022-12-05T08:23:47.937Z,8.57
2022-12-05T08:26:30.332Z,12.10
2022-12-05T08:29:09.423Z,8.48
2022-12-05T08:34:33.437Z,8.55
2022-12-05T08:40:07.715Z,9.40
2022-12-05T08:42:41.460Z,8.35
2022-12-05T08:47:59.007Z,9.00
2022-12-05T08:50:26.569Z,7.80
2022-12-05T08:52:54.326Z,15.80
2022-12-05T08:55:22.035Z,10.02
2022-12-05T08:58:12.956Z,9.10
2022-12-05T09:01:10.753Z,10.80
2022-12-05T09:03:47.573Z,6.85
2022-12-05T09:06:39.493Z,8.75
2022-12-05T09:12:24.267Z,12.38
2022-12-05T09:15:16.159Z,11.05
2022-12-05T09:20:59.454Z,12.02
2022-12-05T09:23:43.788Z,13.32
2022-12-05T09:26:19.950Z,12.95
2022-12-05T09:28:48.333Z,13.90
2022-12-05T09:35:05.175Z,14.20
2022-12-05T09:37:39.839Z,12.27
2022-12-05T09:40:38.942Z,11.80
2022-12-05T09:43:21.871Z,13.20
2022-12-05T09:46:19.637Z,15.93
2022-12-05T09:48:48.597Z,14.00
2022-12-05T09:51:19.310Z,16.80
2022-12-05T09:53:50.004Z,13.23
2022-12-05T09:56:36.544Z,15.77
2022-12-05T09:59:05.825Z,17.67
2022-12-05T10:02:19.209Z,12.52
2022-12-05T10:05:27.916Z,13.20
2022-12-05T10:08:38.066Z,13.18
2022-12-05T10:12:07.583Z,13.55
2022-12-05T10:15:28.192Z,14.60
2022-12-05T10:18:43.252Z,13.40
2022-12-05T10:21:43.586Z,13.68
2022-12-05T10:28:24.078Z,13.13
2022-12-05T10:31:19.570Z,11.10
2022-12-05T10:34:50.634Z,11.00
2022-12-05T10:38:12.167Z,11.77
2022-12-05T10:47:46.222Z,8.00
2022-12-05T10:54:22.522Z,9.68
2022-12-05T10:58:18.346Z,10.25
2022-12-05T11:01:23.036Z,9.23
2022-12-05T11:04:51.843Z,9.48
2022-12-05T11:14:48.361Z,11.30
2022-12-05T11:20:48.125Z,11.90
2022-12-05T11:23:34.494Z,10.35
2022-12-05T11:26:45.761Z,9.73
2022-12-05T11:36:02.266Z,9.23
2022-12-05T11:38:51.860Z,11.45
2022-12-05T11:49:17.583Z,10.48
2022-12-05T11:52:28.989Z,13.40
2022-12-05T11:55:38.961Z,11.65
2022-12-05T12:02:08.121Z,13.63
2022-12-05T12:05:12.989Z,11.82
2022-12-05T12:08:10.391Z,10.35
2022-12-05T12:11:32.030Z,10.98
2022-12-05T12:14:55.938Z,12.10
2022-12-05T12:21:38.992Z,12.40
2022-12-05T12:25:02.367Z,8.98
2022-12-05T12:28:17.985Z,13.43
2022-12-05T12:35:16.871Z,12.00
2022-12-05T12:38:35.585Z,15.20
2022-12-05T12:55:13.771Z,11.07
2022-12-05T12:58:03.201Z,8.48
2022-12-05T13:01:34.447Z,12.13
2022-12-05T13:04:41.460Z,11.80
2022-12-05T13:10:40.801Z,15.00
2022-12-05T13:13:51.255Z,11.05
2022-12-05T13:16:51.224Z,11.52
2022-12-05T13:19:41.362Z,12.60
2022-12-05T13:22:32.413Z,13.40
2022-12-05T13:31:11.495Z,16.42
2022-12-05T13:33:54.138Z,14.60
2022-12-05T13:39:55.674Z,14.30
2022-12-05T13:42:44.946Z,14.68
2022-12-05T13:45:46.374Z,12.90
2022-12-05T13:54:15.978Z,22.77
2022-12-05T14:00:29.049Z,17.52
2022-12-05T14:06:54.501Z,13.70
2022-12-05T14:10:04.320Z,16.02
2022-12-05T14:12:59.451Z,13.25
2022-12-05T14:15:34.000Z,9.57
2022-12-05T14:18:54.651Z,10.23
2022-12-05T14:25:27.673Z,8.20
2022-12-05T14:31:34.476Z,7.65
2022-12-05T14:34:49.338Z,8.52
2022-12-05T14:38:10.552Z,9.07
2022-12-05T14:41:06.029Z,7.43
2022-12-05T14:44:01.591Z,10.20
2022-12-05T14:46:52.969Z,8.15
2022-12-05T14:50:16.070Z,7.38
2022-12-05T14:53:18.373Z,8.60
2022-12-05T14:55:48.908Z,11.73
2022-12-05T14:58:26.499Z,11.27
2022-12-05T15:01:14.397Z,8.45
2022-12-05T15:07:27.612Z,7.75
2022-12-05T15:10:55.866Z,9.25
2022-12-05T15:13:39.757Z,8.00
2022-12-05T15:19:24.319Z,11.65
2022-12-05T15:22:03.529Z,11.00
2022-12-05T15:24:45.290Z,10.85
2022-12-05T15:27:48.923Z,9.75
2022-12-05T15:34:09.563Z,9.55
2022-12-05T15:37:01.677Z,9.02
2022-12-05T15:40:11.163Z,9.85
2022-12-05T15:46:39.158Z,15.30
2022-12-05T15:49:43.408Z,11.48
2022-12-05T15:52:38.964Z,12.13
2022-12-05T15:55:54.764Z,14.48
2022-12-05T15:58:49.208Z,15.60
2022-12-05T16:01:46.089Z,12.52
2022-12-05T16:04:52.808Z,14.05
2022-12-05T16:10:30.342Z,12.55
2022-12-05T16:13:21.630Z,13.20
2022-12-05T16:16:01.906Z,12.20
2022-12-05T16:22:19.100Z,11.98
2022-12-05T16:25:21.992Z,10.52
2022-12-05T16:28:44.933Z,15.20
2022-12-05T16:31:23.135Z,16.25
2022-12-05T16:34:27.862Z,13.90
2022-12-05T16:40:07.675Z,13.40
2022-12-05T16:42:48.566Z,16.85
2022-12-05T16:45:49.836Z,14.68
2022-12-05T16:48:32.986Z,18.98
2022-12-05T16:51:30.525Z,17.45
2022-12-05T16:54:27.214Z,16.15
2022-12-05T16:57:13.615Z,19.55
2022-12-05T16:59:55.984Z,12.75
2022-12-05T17:02:42.664Z,13.43
2022-12-05T17:08:54.872Z,14.80
2022-12-05T17:11:27.901Z,15.20
2022-12-05T17:13:57.902Z,14.80
2022-12-05T17:16:29.802Z,13.48
2022-12-05T17:19:03.736Z,13.35
2022-12-05T17:21:34.008Z,20.83
2022-12-05T17:24:10.069Z,13.43
2022-12-05T17:26:38.874Z,17.60
2022-12-05T17:29:09.035Z,15.63
2022-12-05T17:31:37.051Z,13.68
2022-12-05T17:34:15.902Z,16.98
2022-12-05T17:36:50.541Z,19.20
2022-12-05T17:39:20.360Z,17.83
2022-12-05T17:41:51.709Z,22.45
2022-12-05T17:44:19.366Z,21.15
2022-12-05T19:38:37.741Z,27.73
2022-12-05T19:41:11.357Z,25.38
2022-12-05T19:43:40.968Z,28.75
2022-12-05T19:46:18.253Z,25.50
2022-12-05T21:12:40.608Z,42.67
2022-12-05T21:15:11.702Z,45.67
2022-12-05T21:17:39.659Z,41.60
2022-12-05T21:24:18.209Z,40.42
2022-12-05T21:26:56.837Z,52.45
